createdAt,value
2022-08-03T00:01:49.271Z,101664.78
2022-08-03T00:04:15.859Z,101657.81
2022-08-03T00:06:42.892Z,101659.91
2022-08-03T00:09:10.038Z,101657.34
2022-08-03T00:11:36.853Z,101663.41
2022-08-03T00:14:05.041Z,101654.78
2022-08-03T00:16:31.692Z,101656.66
2022-08-03T00:18:58.419Z,101664.09
2022-08-03T00:21:28.751Z,101659.41
2022-08-03T00:23:56.240Z,101657.22
2022-08-03T00:26:22.819Z,101653.16
2022-08-03T00:28:49.978Z,101661.41
2022-08-03T00:31:19.735Z,101647.56
2022-08-03T00:34:03.699Z,101657.09
2022-08-03T00:36:30.850Z,101661.03
2022-08-03T00:38:57.732Z,101649.41
2022-08-03T00:41:24.356Z,101649.88
2022-08-03T00:43:51.243Z,101646.16
2022-08-03T00:46:21.604Z,101647.75
2022-08-03T00:48:49.821Z,101650.94
2022-08-03T00:51:16.604Z,101650.94
2022-08-03T00:53:43.430Z,101650.94
2022-08-03T00:56:13.861Z,101645.44
2022-08-03T00:58:40.477Z,101646.34
2022-08-03T01:01:07.364Z,101641.78
2022-08-03T01:03:34.562Z,101638.41
2022-08-03T01:06:16.834Z,101638.41
2022-08-03T01:08:49.214Z,101640.06
2022-08-03T01:12:00.895Z,101636.56
2022-08-03T01:14:37.392Z,101639.09
2022-08-03T01:17:24.406Z,101643.06
2022-08-03T01:20:02.577Z,101641.38
2022-08-03T01:22:35.062Z,101634.41
2022-08-03T01:25:28.914Z,101640.00
2022-08-03T01:28:37.407Z,101638.34
2022-08-03T01:31:10.337Z,101636.13
2022-08-03T01:33:43.856Z,101633.78
2022-08-03T01:36:14.720Z,101632.03
2022-08-03T01:39:01.253Z,101632.69
2022-08-03T01:41:37.417Z,101637.78
2022-08-03T01:44:29.760Z,101637.19
2022-08-03T01:46:56.968Z,101636.38
2022-08-03T01:49:25.784Z,101630.66
2022-08-03T01:51:58.015Z,101626.00
2022-08-03T01:54:32.756Z,101621.09
2022-08-03T01:56:59.752Z,101618.00
2022-08-03T01:59:29.701Z,101615.69
2022-08-03T02:02:16.050Z,101611.97
2022-08-03T02:04:46.983Z,101619.25
2022-08-03T02:07:16.293Z,101626.97
2022-08-03T02:09:45.556Z,101625.22
2022-08-03T02:12:15.018Z,101625.06
2022-08-03T02:14:44.375Z,101614.16
2022-08-03T02:17:12.723Z,101625.28
2022-08-03T02:19:40.693Z,101621.56
2022-08-03T02:22:09.497Z,101624.25
2022-08-03T02:24:36.137Z,101627.34
2022-08-03T02:27:05.887Z,101623.06
2022-08-03T02:29:39.368Z,101622.81
2022-08-03T02:32:10.550Z,101622.38
2022-08-03T02:34:39.944Z,101614.97
2022-08-03T02:37:08.621Z,101609.66
2022-08-03T02:39:36.741Z,101603.50
2022-08-03T02:42:05.431Z,101606.28
2022-08-03T02:44:35.580Z,101602.38
2022-08-03T02:47:07.448Z,101605.59
2022-08-03T02:49:50.143Z,101597.84
2022-08-03T02:52:24.022Z,101600.50
2022-08-03T02:54:54.985Z,101595.16
2022-08-03T02:57:23.279Z,101594.13
2022-08-03T02:59:51.676Z,101591.69
2022-08-03T03:02:19.863Z,101587.59
2022-08-03T03:04:58.094Z,101588.03
2022-08-03T03:07:51.400Z,101591.59
2022-08-03T03:10:21.728Z,101592.53
2022-08-03T03:12:51.373Z,101592.28
2022-08-03T03:15:18.917Z,101596.00
2022-08-03T03:17:46.588Z,101595.19
2022-08-03T03:20:15.282Z,101593.56
2022-08-03T03:22:59.182Z,101589.47
2022-08-03T03:25:25.951Z,101588.31
2022-08-03T03:27:52.919Z,101587.69
2022-08-03T03:30:19.554Z,101591.41
2022-08-03T03:32:46.143Z,101584.63
2022-08-03T03:35:14.853Z,101592.63
2022-08-03T03:37:41.383Z,101585.69
2022-08-03T03:40:09.150Z,101586.47
2022-08-03T03:42:38.325Z,101583.44
2022-08-03T03:45:06.422Z,101587.97
2022-08-03T03:47:34.952Z,101593.75
2022-08-03T03:50:05.931Z,101589.66
2022-08-03T03:52:33.259Z,101586.19
2022-08-03T03:55:01.318Z,101587.22
2022-08-03T03:57:29.453Z,101590.50
2022-08-03T03:59:56.245Z,101587.84
2022-08-03T04:02:22.884Z,101592.13
2022-08-03T04:05:08.044Z,101588.84
2022-08-03T04:08:05.030Z,101587.84
2022-08-03T04:10:54.487Z,101587.59
2022-08-03T04:13:22.173Z,101588.03
2022-08-03T04:15:50.193Z,101593.75
2022-08-03T04:18:17.873Z,101594.56
2022-08-03T04:20:47.764Z,101594.56
2022-08-03T04:23:18.025Z,101592.94
2022-08-03T04:25:46.711Z,101594.13
2022-08-03T04:28:30.854Z,101595.16
2022-08-03T04:31:00.865Z,101593.06
2022-08-03T04:33:30.840Z,101599.84
2022-08-03T04:36:02.526Z,101600.47
2022-08-03T04:38:32.932Z,101594.25
2022-08-03T04:41:01.025Z,101594.91
2022-08-03T04:43:28.722Z,101599.78
2022-08-03T04:45:57.052Z,101597.13
2022-08-03T04:48:24.608Z,101597.69
2022-08-03T04:50:51.898Z,101603.88
2022-08-03T04:53:19.620Z,101606.31
2022-08-03T04:55:46.848Z,101604.00
2022-08-03T04:58:13.521Z,101607.03
2022-08-03T05:00:40.026Z,101614.38
2022-08-03T05:03:19.530Z,101615.19
2022-08-03T05:06:09.412Z,101619.50
2022-08-03T05:08:46.421Z,101616.00
2022-08-03T05:11:16.399Z,101620.09
2022-08-03T05:13:43.578Z,101620.09
2022-08-03T05:16:10.298Z,101623.56
2022-08-03T05:18:36.831Z,101626.47
2022-08-03T05:21:03.941Z,101625.41
2022-08-03T05:23:30.966Z,101628.91
2022-08-03T05:25:57.598Z,101632.84
2022-08-03T05:28:24.184Z,101628.53
2022-08-03T05:30:50.919Z,101627.16
2022-08-03T05:33:17.425Z,101631.44
2022-08-03T05:36:00.709Z,101631.22
2022-08-03T05:38:34.103Z,101632.63
2022-08-03T05:41:22.765Z,101635.06
2022-08-03T05:43:54.649Z,101634.63
2022-08-03T05:46:22.744Z,101635.94
2022-08-03T05:48:49.553Z,101631.34
2022-08-03T05:51:16.125Z,101633.34
2022-08-03T05:53:43.327Z,101630.22
2022-08-03T05:56:13.786Z,101638.34
2022-08-03T05:58:47.393Z,101630.25
2022-08-03T06:01:15.464Z,101633.28
2022-08-03T06:03:42.034Z,101631.56
2022-08-03T06:06:12.025Z,101629.59
2022-08-03T06:08:39.508Z,101627.44
2022-08-03T06:11:06.036Z,101631.66
2022-08-03T06:13:32.902Z,101624.38
2022-08-03T06:15:59.555Z,101631.59
2022-08-03T06:18:26.133Z,101626.84
2022-08-03T06:20:53.371Z,101630.34
2022-08-03T06:23:20.001Z,101631.59
2022-08-03T06:25:47.499Z,101637.09
2022-08-03T06:28:42.370Z,101635.22
2022-08-03T06:31:01.465Z,101637.78
2022-08-03T06:34:30.651Z,101635.59
2022-08-03T06:36:15.362Z,101635.22
2022-08-03T06:38:42.014Z,101633.81
2022-08-03T06:41:08.589Z,101634.72
2022-08-03T06:43:37.757Z,101639.50
2022-08-03T06:46:08.011Z,101633.41
2022-08-03T06:48:34.524Z,101633.53
2022-08-03T06:51:01.043Z,101642.13
2022-08-03T06:53:27.601Z,101629.75
2022-08-03T06:55:55.181Z,101639.06
2022-08-03T06:58:22.095Z,101635.91
2022-08-03T07:00:48.636Z,101638.00
2022-08-03T07:03:15.230Z,101634.97
2022-08-03T07:05:42.909Z,101646.16
2022-08-03T07:08:10.034Z,101641.66
2022-08-03T07:10:37.032Z,101646.81
2022-08-03T07:13:04.340Z,101647.69
2022-08-03T07:15:54.141Z,101648.97
2022-08-03T07:18:17.789Z,101656.88
2022-08-03T07:20:55.481Z,101661.25
2022-08-03T07:23:22.642Z,101658.06
2022-08-03T07:25:49.224Z,101668.19
2022-08-03T07:28:15.766Z,101663.84
2022-08-03T07:30:42.278Z,101668.88
2022-08-03T07:33:08.780Z,101672.81
2022-08-03T07:35:35.397Z,101672.66
2022-08-03T07:38:02.018Z,101676.56
2022-08-03T07:40:30.662Z,101668.38
2022-08-03T07:42:58.788Z,101667.91
2022-08-03T07:45:26.571Z,101670.44
2022-08-03T07:47:53.486Z,101667.34
2022-08-03T07:50:21.041Z,101665.94
2022-08-03T07:52:47.946Z,101662.19
2022-08-03T07:55:14.950Z,101667.66
2022-08-03T07:57:41.523Z,101665.84
2022-08-03T08:00:18.013Z,101658.25
2022-08-03T08:02:45.577Z,101658.31
2022-08-03T08:05:12.611Z,101663.22
2022-08-03T08:07:40.177Z,101658.16
2022-08-03T08:10:08.406Z,101666.38
2022-08-03T08:12:35.035Z,101655.69
2022-08-03T08:15:02.179Z,101664.66
2022-08-03T08:17:28.737Z,101660.41
2022-08-03T08:19:55.363Z,101659.97
2022-08-03T08:22:28.086Z,101656.53
2022-08-03T08:24:58.270Z,101659.47
2022-08-03T08:27:24.831Z,101656.31
2022-08-03T08:29:54.510Z,101660.44
2022-08-03T08:32:23.137Z,101672.84
2022-08-03T08:34:49.686Z,101660.31
2022-08-03T08:37:16.460Z,101666.03
2022-08-03T08:39:42.967Z,101675.78
2022-08-03T08:42:10.263Z,101670.69
2022-08-03T08:44:37.008Z,101671.88
2022-08-03T08:47:04.598Z,101663.31
2022-08-03T08:49:33.049Z,101672.56
2022-08-03T08:52:03.193Z,101672.13
2022-08-03T08:54:32.490Z,101674.09
2022-08-03T08:57:03.060Z,101681.16
2022-08-03T08:59:48.028Z,101672.81
2022-08-03T09:02:15.783Z,101675.63
2022-08-03T09:04:42.789Z,101678.91
2022-08-03T09:07:29.124Z,101679.28
2022-08-03T09:10:05.968Z,101675.63
2022-08-03T09:12:43.260Z,101664.72
2022-08-03T09:15:17.553Z,101673.63
2022-08-03T09:17:47.678Z,101663.44
2022-08-03T09:20:18.197Z,101664.84
2022-08-03T09:22:55.708Z,101665.66
2022-08-03T09:25:32.683Z,101674.00
2022-08-03T09:28:13.919Z,101676.72
2022-08-03T09:31:00.636Z,101674.06
2022-08-03T09:33:27.223Z,101668.13
2022-08-03T09:36:02.890Z,101671.97
2022-08-03T09:38:29.395Z,101667.50
2022-08-03T09:41:00.488Z,101661.38
2022-08-03T09:43:27.968Z,101664.66
2022-08-03T09:46:03.643Z,101662.53
2022-08-03T09:48:31.733Z,101661.53
2022-08-03T09:51:13.424Z,101673.19
2022-08-03T09:53:56.994Z,101676.19
2022-08-03T09:56:39.034Z,101661.94
2022-08-03T09:59:05.715Z,101664.66
2022-08-03T10:01:35.968Z,101667.63
2022-08-03T10:04:05.215Z,101666.56
2022-08-03T10:06:32.086Z,101669.31
2022-08-03T10:09:16.833Z,101673.59
2022-08-03T10:11:44.581Z,101673.59
2022-08-03T10:14:19.058Z,101673.59
2022-08-03T10:16:47.110Z,101674.41
2022-08-03T10:19:15.093Z,101676.28
2022-08-03T10:21:55.323Z,101673.84
2022-08-03T10:24:27.144Z,101671.69
2022-08-03T10:27:01.195Z,101667.28
2022-08-03T10:29:29.648Z,101666.16
2022-08-03T10:31:59.056Z,101667.78
2022-08-03T10:34:34.435Z,101664.44
2022-08-03T10:37:05.471Z,101668.19
2022-08-03T10:39:32.063Z,101667.03
2022-08-03T10:41:59.988Z,101662.34
2022-08-03T10:44:33.783Z,101653.91
2022-08-03T10:47:01.531Z,101654.66
2022-08-03T10:49:34.770Z,101662.75
2022-08-03T10:52:12.956Z,101649.97
2022-08-03T10:55:03.300Z,101647.78
2022-08-03T10:57:56.114Z,101642.72
2022-08-03T11:00:30.098Z,101641.81
2022-08-03T11:03:15.887Z,101651.94
2022-08-03T11:05:47.345Z,101650.28
2022-08-03T11:08:27.913Z,101653.91
2022-08-03T11:11:17.472Z,101647.44
2022-08-03T11:14:10.296Z,101640.34
2022-08-03T11:16:42.425Z,101641.09
2022-08-03T11:19:11.397Z,101649.72
2022-08-03T11:21:50.024Z,101643.16
2022-08-03T11:24:39.346Z,101638.53
2022-08-03T11:27:18.563Z,101637.66
2022-08-03T11:30:20.311Z,101638.09
2022-08-03T11:32:57.766Z,101643.94
2022-08-03T11:35:33.795Z,101646.06
2022-08-03T11:38:03.262Z,101647.97
2022-08-03T11:40:45.056Z,101650.53
2022-08-03T11:43:35.429Z,101645.47
2022-08-03T11:46:05.321Z,101638.94
2022-08-03T11:48:37.513Z,101642.13
2022-08-03T11:51:18.604Z,101646.97
2022-08-03T11:53:47.784Z,101643.34
2022-08-03T11:56:14.415Z,101646.16
2022-08-03T11:59:00.900Z,101644.00
2022-08-03T12:01:35.497Z,101642.91
2022-08-03T12:04:06.160Z,101631.66
2022-08-03T12:06:55.004Z,101649.97
2022-08-03T12:09:22.305Z,101648.16
2022-08-03T12:11:59.783Z,101644.59
2022-08-03T12:14:49.993Z,101645.75
2022-08-03T12:17:15.138Z,101652.09
2022-08-03T12:19:43.290Z,101646.28
2022-08-03T12:22:09.920Z,101635.22
2022-08-03T12:24:47.661Z,101643.56
2022-08-03T12:27:24.345Z,101642.97
2022-08-03T12:29:58.359Z,101641.66
2022-08-03T12:32:26.794Z,101634.31
2022-08-03T12:34:53.521Z,101630.66
2022-08-03T12:37:23.215Z,101626.22
2022-08-03T12:40:02.214Z,101636.50
2022-08-03T12:42:35.520Z,101644.59
2022-08-03T12:45:28.587Z,101645.47
2022-08-03T12:48:02.082Z,101639.50
2022-08-03T12:50:31.333Z,101636.16
2022-08-03T12:52:59.364Z,101651.09
2022-08-03T12:55:57.821Z,101638.84
2022-08-03T12:58:35.312Z,101638.81
2022-08-03T13:01:09.889Z,101635.41
2022-08-03T13:03:50.232Z,101639.41
2022-08-03T13:06:22.140Z,101641.72
2022-08-03T13:08:50.006Z,101626.81
2022-08-03T13:11:55.868Z,101639.63
2022-08-03T13:14:13.549Z,101623.91
2022-08-03T13:16:46.329Z,101632.25
2022-08-03T13:19:15.693Z,101625.47
2022-08-03T13:22:02.169Z,101630.00
2022-08-03T13:24:30.581Z,101629.75
2022-08-03T13:26:58.380Z,101628.00
2022-08-03T13:29:24.886Z,101639.47
2022-08-03T13:31:51.688Z,101634.44
2022-08-03T13:34:23.232Z,101630.31
2022-08-03T13:37:08.483Z,101628.88
2022-08-03T13:39:58.471Z,101624.31
2022-08-03T13:42:22.834Z,101626.00
2022-08-03T13:44:49.373Z,101625.84
2022-08-03T13:47:16.202Z,101636.75
2022-08-03T13:49:42.917Z,101628.38
2022-08-03T13:52:27.681Z,101638.06
2022-08-03T13:54:54.225Z,101628.22
2022-08-03T13:58:03.796Z,101629.88
2022-08-03T14:00:09.209Z,101630.28
2022-08-03T14:02:35.849Z,101623.66
2022-08-03T14:05:02.485Z,101630.06
2022-08-03T14:07:29.005Z,101633.66
2022-08-03T14:09:55.445Z,101631.47
2022-08-03T14:12:22.002Z,101633.41
2022-08-03T14:14:48.498Z,101625.19
2022-08-03T14:17:16.301Z,101616.88
2022-08-03T14:19:53.523Z,101627.50
2022-08-03T14:22:21.177Z,101615.19
2022-08-03T14:24:49.359Z,101627.31
2022-08-03T14:27:16.921Z,101621.78
2022-08-03T14:29:43.471Z,101614.06
2022-08-03T14:32:13.218Z,101610.31
2022-08-03T14:34:40.418Z,101608.56
2022-08-03T14:37:07.175Z,101607.84
2022-08-03T14:42:20.501Z,101593.91
2022-08-03T14:44:47.585Z,101594.81
2022-08-03T14:47:14.519Z,101591.53
2022-08-03T14:50:32.572Z,101600.91
2022-08-03T14:52:27.987Z,101579.13
2022-08-03T14:54:54.484Z,101590.19
2022-08-03T14:57:21.314Z,101585.66
2022-08-03T14:59:55.790Z,101584.09
2022-08-03T15:02:25.017Z,101581.94
2022-08-03T15:04:52.663Z,101587.56
2022-08-03T15:07:20.437Z,101588.94
2022-08-03T15:09:47.323Z,101595.16
2022-08-03T15:12:14.028Z,101583.66
2022-08-03T15:14:40.536Z,101583.53
2022-08-03T15:17:07.608Z,101578.13
2022-08-03T15:20:03.680Z,101579.25
2022-08-03T15:22:24.935Z,101583.59
2022-08-03T15:24:52.306Z,101585.31
2022-08-03T15:27:19.233Z,101576.38
2022-08-03T15:30:06.901Z,101574.53
2022-08-03T15:32:34.106Z,101579.84
2022-08-03T15:35:01.243Z,101584.63
2022-08-03T15:37:28.081Z,101582.22
2022-08-03T15:39:59.713Z,101580.47
2022-08-03T15:42:29.304Z,101576.72
2022-08-03T15:44:55.988Z,101572.00
2022-08-03T15:47:22.693Z,101572.28
2022-08-03T15:49:49.504Z,101572.75
2022-08-03T15:52:16.035Z,101572.91
2022-08-03T15:54:42.626Z,101562.41
2022-08-03T15:57:09.136Z,101574.03
2022-08-03T15:59:35.592Z,101568.66
2022-08-03T16:02:02.671Z,101564.28
2022-08-03T16:04:29.260Z,101565.41
2022-08-03T16:06:55.916Z,101563.50
2022-08-03T16:09:22.894Z,101568.06
2022-08-03T16:12:13.280Z,101561.91
2022-08-03T16:14:51.841Z,101555.72
2022-08-03T16:17:19.510Z,101552.81
2022-08-03T16:19:46.286Z,101559.69
2022-08-03T16:22:14.394Z,101557.59
2022-08-03T16:24:41.356Z,101555.66
2022-08-03T16:27:25.048Z,101559.59
2022-08-03T16:29:55.085Z,101557.13
2022-08-03T16:32:21.645Z,101552.31
2022-08-03T16:34:48.263Z,101542.44
2022-08-03T16:37:37.766Z,101545.72
2022-08-03T16:40:03.247Z,101538.81
2022-08-03T16:42:29.918Z,101535.91
2022-08-03T16:44:56.442Z,101539.47
2022-08-03T16:47:23.161Z,101538.53
2022-08-03T16:49:55.056Z,101540.44
2022-08-03T16:52:23.245Z,101532.09
2022-08-03T16:54:53.032Z,101532.28
2022-08-03T16:57:55.660Z,101540.63
2022-08-03T17:00:12.187Z,101541.88
2022-08-03T17:03:00.889Z,101542.19
2022-08-03T17:05:43.805Z,101548.81
2022-08-03T17:08:14.647Z,101539.50
2022-08-03T17:10:45.112Z,101541.72
2022-08-03T17:13:22.101Z,101537.03
2022-08-03T17:16:01.407Z,101537.34
2022-08-03T17:18:34.959Z,101540.13
2022-08-03T17:21:06.081Z,101536.34
2022-08-03T17:23:49.831Z,101541.91
2022-08-03T17:26:22.053Z,101541.00
2022-08-03T17:28:56.479Z,101539.13
2022-08-03T17:31:31.094Z,101542.44
2022-08-03T17:34:00.791Z,101545.28
2022-08-03T17:36:47.550Z,101537.41
2022-08-03T17:39:16.762Z,101540.66
2022-08-03T17:41:48.983Z,101541.34
2022-08-03T17:44:31.171Z,101543.97
2022-08-03T17:47:05.013Z,101539.72
2022-08-03T17:49:40.067Z,101541.13
2022-08-03T17:52:21.876Z,101546.56
2022-08-03T17:55:55.443Z,101548.50
2022-08-03T17:58:15.058Z,101544.78
2022-08-03T18:01:04.732Z,101539.34
2022-08-03T18:04:00.250Z,101543.19
2022-08-03T18:06:31.158Z,101546.31
2022-08-03T18:09:04.813Z,101551.47
2022-08-03T18:11:51.250Z,101548.34
2022-08-03T18:14:36.662Z,101549.47
2022-08-03T18:17:10.881Z,101551.44
2022-08-03T18:20:03.428Z,101538.97
2022-08-03T18:22:28.197Z,101546.91
2022-08-03T18:24:59.087Z,101543.28
2022-08-03T18:27:45.392Z,101541.47
2022-08-03T18:30:17.090Z,101548.81
2022-08-03T18:32:43.960Z,101543.97
2022-08-03T18:35:28.264Z,101544.59
2022-08-03T18:38:15.733Z,101547.31
2022-08-03T18:40:48.704Z,101535.13
2022-08-03T18:43:17.522Z,101550.41
2022-08-03T18:45:57.108Z,101543.97
2022-08-03T18:48:32.810Z,101543.81
2022-08-03T18:51:06.932Z,101534.22
2022-08-03T18:54:02.631Z,101543.06
2022-08-03T18:56:49.125Z,101541.41
2022-08-03T18:59:27.154Z,101542.78
2022-08-03T19:02:05.323Z,101548.00
2022-08-03T19:04:46.789Z,101546.28
2022-08-03T19:07:35.951Z,101543.41
2022-08-03T19:10:09.704Z,101549.41
2022-08-03T19:12:49.353Z,101552.13
2022-08-03T19:15:36.135Z,101544.09
2022-08-03T19:18:08.797Z,101553.41
2022-08-03T19:20:41.398Z,101550.16
2022-08-03T19:23:14.276Z,101552.63
2022-08-03T19:25:41.439Z,101551.88
2022-08-03T19:28:09.021Z,101555.66
2022-08-03T19:30:40.117Z,101555.53
2022-08-03T19:33:14.903Z,101563.00
2022-08-03T19:35:51.428Z,101565.88
2022-08-03T19:41:14.926Z,101570.69
2022-08-03T19:43:57.761Z,101568.84
2022-08-03T19:46:31.195Z,101569.41
2022-08-03T19:49:15.353Z,101571.00
2022-08-03T19:52:00.905Z,101569.41
2022-08-03T19:54:39.579Z,101566.41
2022-08-03T19:57:25.432Z,101567.81
2022-08-03T19:59:55.112Z,101560.28
2022-08-03T20:02:26.313Z,101563.28
2022-08-03T20:04:55.310Z,101557.66
2022-08-03T20:07:23.644Z,101558.25
2022-08-03T20:09:56.079Z,101560.13
2022-08-03T20:12:27.502Z,101559.88
2022-08-03T20:14:57.418Z,101550.97
2022-08-03T20:17:54.119Z,101553.41
2022-08-03T20:20:13.988Z,101550.16
2022-08-03T20:22:45.575Z,101557.53
2022-08-03T20:25:20.865Z,101552.13
2022-08-03T20:28:07.082Z,101555.38
2022-08-03T20:30:42.520Z,101543.53
2022-08-03T20:33:09.926Z,101544.06
2022-08-03T20:35:36.397Z,101540.31
2022-08-03T20:38:03.316Z,101543.53
2022-08-03T20:40:29.898Z,101549.19
2022-08-03T20:42:59.846Z,101542.19
2022-08-03T20:45:59.040Z,101539.50
2022-08-03T20:48:15.999Z,101541.38
2022-08-03T20:50:43.830Z,101535.44
2022-08-03T20:53:12.691Z,101548.38
2022-08-03T20:55:48.028Z,101540.78
2022-08-03T20:58:27.202Z,101541.84
2022-08-03T21:00:56.753Z,101534.88
2022-08-03T21:03:23.258Z,101540.81
2022-08-03T21:08:46.886Z,101541.84
2022-08-03T21:11:17.908Z,101531.88
2022-08-03T21:13:02.596Z,101561.94
2022-08-03T21:13:08.029Z,101535.94
2022-08-03T21:13:52.094Z,101529.19
2022-08-03T21:16:21.654Z,101533.50
2022-08-03T21:18:52.780Z,101532.41
2022-08-03T21:21:22.450Z,101527.56
2022-08-03T21:23:52.556Z,101527.28
2022-08-03T21:26:21.647Z,101517.81
2022-08-03T21:28:49.784Z,101520.53
2022-08-03T21:31:22.358Z,101522.94
2022-08-03T21:33:56.991Z,101514.78
2022-08-03T21:36:25.953Z,101513.28
2022-08-03T21:38:56.160Z,101510.75
2022-08-03T21:41:24.331Z,101507.41
2022-08-03T21:43:50.808Z,101515.19
2022-08-03T21:46:19.536Z,101503.31
2022-08-03T21:48:53.390Z,101509.00
2022-08-03T21:51:23.301Z,101505.53
2022-08-03T21:54:02.839Z,101506.19
2022-08-03T21:56:41.504Z,101507.69
2022-08-03T21:59:15.755Z,101500.88
2022-08-03T22:01:43.094Z,101511.78
2022-08-03T22:04:11.984Z,101496.50
2022-08-03T22:06:57.785Z,101498.22
2022-08-03T22:09:24.426Z,101503.88
2022-08-03T22:11:54.116Z,101501.31
2022-08-03T22:14:21.628Z,101498.44
2022-08-03T22:16:49.173Z,101499.81
2022-08-03T22:19:15.770Z,101499.22
2022-08-03T22:21:45.879Z,101505.09
2022-08-03T22:24:15.551Z,101503.72
2022-08-03T22:27:03.475Z,101501.88
2022-08-03T22:29:32.774Z,101498.91
2022-08-03T22:31:59.652Z,101495.38
2022-08-03T22:34:27.193Z,101492.94
2022-08-03T22:37:00.781Z,101489.16
2022-08-03T22:39:28.826Z,101492.97
2022-08-03T22:41:58.821Z,101479.47
2022-08-03T22:44:26.911Z,101489.91
2022-08-03T22:46:53.429Z,101484.25
2022-08-03T22:49:20.679Z,101476.97
2022-08-03T22:51:47.633Z,101487.44
2022-08-03T22:54:14.761Z,101477.34
2022-08-03T22:56:41.890Z,101471.97
2022-08-03T22:59:40.808Z,101472.06
2022-08-03T23:02:15.045Z,101466.06
2022-08-03T23:04:51.141Z,101467.03
2022-08-03T23:07:22.388Z,101472.78
2022-08-03T23:09:49.534Z,101473.56
2022-08-03T23:12:20.125Z,101482.13
2022-08-03T23:14:54.306Z,101479.06
2022-08-03T23:17:23.859Z,101476.91
2022-08-03T23:19:52.737Z,101471.22
2022-08-03T23:22:29.976Z,101472.50
2022-08-03T23:24:58.803Z,101473.28
2022-08-03T23:27:27.012Z,101473.47
2022-08-03T23:29:54.062Z,101475.47
2022-08-03T23:32:21.074Z,101476.81
2022-08-03T23:35:07.308Z,101471.31
2022-08-03T23:38:04.518Z,101474.81
2022-08-03T23:40:29.524Z,101472.94
2022-08-03T23:42:57.052Z,101475.34
2022-08-03T23:45:25.805Z,101470.75
2022-08-03T23:47:52.289Z,101465.38
2022-08-03T23:50:19.090Z,101464.88
2022-08-03T23:53:12.051Z,101471.06
2022-08-03T23:55:47.686Z,101461.06
2022-08-03T23:58:47.808Z,101464.84
